createdAt,value
2017-11-30T00:01:02.897Z,20.00
2017-11-30T00:03:31.245Z,21.02
2017-11-30T00:05:59.590Z,17.20
2017-11-30T00:08:27.963Z,19.27
2017-11-30T00:10:56.301Z,14.77
2017-11-30T00:13:24.642Z,16.65
2017-11-30T00:15:52.991Z,20.08
2017-11-30T00:18:21.338Z,18.08
2017-11-30T00:20:49.703Z,17.80
2017-11-30T00:23:18.036Z,18.98
2017-11-30T00:25:46.403Z,20.55
2017-11-30T00:28:14.806Z,23.98
2017-11-30T00:30:43.182Z,21.45
2017-11-30T00:33:11.552Z,21.60
2017-11-30T00:35:39.908Z,23.05
2017-11-30T00:38:08.249Z,23.77
2017-11-30T00:40:36.604Z,22.92
2017-11-30T00:43:16.615Z,16.12
2017-11-30T00:45:44.956Z,19.67
2017-11-30T00:48:13.344Z,14.30
2017-11-30T00:50:41.736Z,15.70
2017-11-30T00:53:10.073Z,14.50
2017-11-30T00:55:38.418Z,18.08
2017-11-30T00:58:06.754Z,21.23
2017-11-30T01:00:35.091Z,15.73
2017-11-30T01:03:03.469Z,15.13
2017-11-30T01:05:31.812Z,20.00
2017-11-30T01:08:00.156Z,17.70
2017-11-30T01:10:28.504Z,17.25
2017-11-30T01:12:56.847Z,15.50
2017-11-30T01:15:25.228Z,21.08
2017-11-30T01:17:53.577Z,16.75
2017-11-30T01:20:21.921Z,20.17
2017-11-30T01:22:50.267Z,17.20
2017-11-30T01:25:18.612Z,16.00
2017-11-30T01:27:47.000Z,15.15
2017-11-30T01:30:15.348Z,16.73
2017-11-30T01:32:43.689Z,23.17
2017-11-30T01:35:12.032Z,18.80
2017-11-30T01:37:40.387Z,18.15
2017-11-30T01:40:08.762Z,15.02
2017-11-30T01:42:37.104Z,16.10
2017-11-30T01:45:05.465Z,15.18
2017-11-30T01:47:33.803Z,18.60
2017-11-30T01:50:02.175Z,18.10
2017-11-30T01:52:30.568Z,18.12
2017-11-30T01:54:58.908Z,18.90
2017-11-30T01:57:27.255Z,20.52
2017-11-30T01:59:55.597Z,20.67
2017-11-30T02:02:23.940Z,25.08
2017-11-30T02:04:52.321Z,14.43
2017-11-30T02:07:20.670Z,15.20
2017-11-30T02:09:49.028Z,17.98
2017-11-30T02:12:17.370Z,22.60
2017-11-30T02:14:45.719Z,15.75
2017-11-30T02:17:14.695Z,21.25
2017-11-30T02:19:43.039Z,13.68
2017-11-30T02:22:11.420Z,19.08
2017-11-30T02:24:39.769Z,17.95
2017-11-30T02:27:08.108Z,14.35
2017-11-30T02:29:36.450Z,15.60
2017-11-30T02:32:04.789Z,16.25
2017-11-30T02:34:33.158Z,15.70
2017-11-30T02:37:01.507Z,17.87
2017-11-30T02:39:29.860Z,16.90
2017-11-30T02:41:58.209Z,17.17
2017-11-30T02:44:26.560Z,14.40
2017-11-30T02:46:54.904Z,16.95
2017-11-30T02:49:23.262Z,16.67
2017-11-30T02:51:51.636Z,15.15
2017-11-30T02:54:20.038Z,17.35
2017-11-30T02:56:48.381Z,20.90
2017-11-30T02:59:16.720Z,19.33
2017-11-30T03:01:45.056Z,20.00
2017-11-30T03:04:13.427Z,12.23
2017-11-30T03:06:41.778Z,15.60
2017-11-30T03:09:10.116Z,15.60
2017-11-30T03:11:38.456Z,13.88
2017-11-30T03:14:06.824Z,13.50
2017-11-30T03:16:35.360Z,20.40
2017-11-30T03:19:03.701Z,17.80
2017-11-30T03:21:32.058Z,17.75
2017-11-30T03:24:00.395Z,19.37
2017-11-30T03:26:28.741Z,19.80
2017-11-30T03:28:57.116Z,23.42
2017-11-30T03:31:25.461Z,20.45
2017-11-30T03:33:53.812Z,19.85
2017-11-30T03:36:22.156Z,19.52
2017-11-30T03:38:50.529Z,20.23
2017-11-30T03:41:18.911Z,16.58
2017-11-30T03:43:47.257Z,16.30
2017-11-30T03:46:15.605Z,21.50
2017-11-30T03:48:43.956Z,16.27
2017-11-30T03:51:12.302Z,18.92
2017-11-30T03:53:40.704Z,19.40
2017-11-30T03:56:09.036Z,16.90
2017-11-30T03:58:37.389Z,20.62
2017-11-30T04:01:05.761Z,21.95
2017-11-30T04:03:34.109Z,30.65
2017-11-30T04:06:02.496Z,30.83
2017-11-30T04:08:30.847Z,30.10
2017-11-30T04:10:59.193Z,29.85
2017-11-30T04:13:27.540Z,32.30
2017-11-30T04:15:55.893Z,29.73
2017-11-30T04:18:24.277Z,36.08
2017-11-30T04:20:52.629Z,35.88
2017-11-30T04:23:20.980Z,36.05
2017-11-30T04:25:49.337Z,35.13
2017-11-30T04:28:17.689Z,28.48
2017-11-30T04:30:46.084Z,33.28
2017-11-30T04:33:14.436Z,37.28
2017-11-30T04:35:42.784Z,39.13
2017-11-30T04:38:11.136Z,30.90
2017-11-30T04:40:39.496Z,33.13
2017-11-30T04:43:07.916Z,29.50
2017-11-30T04:45:36.269Z,35.92
2017-11-30T04:48:04.614Z,35.90
2017-11-30T04:50:32.956Z,35.80
2017-11-30T04:53:01.441Z,27.50
2017-11-30T04:55:29.790Z,26.58
2017-11-30T04:57:58.136Z,30.12
2017-11-30T05:00:26.486Z,34.88
2017-11-30T05:02:54.829Z,31.35
2017-11-30T05:05:23.216Z,33.28
2017-11-30T05:07:51.569Z,36.25
2017-11-30T05:10:19.921Z,32.97
2017-11-30T05:12:48.269Z,27.77
2017-11-30T05:15:16.626Z,28.92
2017-11-30T05:17:45.000Z,27.20
2017-11-30T05:20:13.357Z,27.85
2017-11-30T05:22:41.706Z,25.12
2017-11-30T05:25:10.061Z,31.08
2017-11-30T05:27:38.441Z,24.17
2017-11-30T05:30:06.783Z,24.45
2017-11-30T05:32:35.128Z,24.87
2017-11-30T05:35:03.492Z,24.02
2017-11-30T05:37:31.839Z,27.20
2017-11-30T05:40:00.460Z,23.17
2017-11-30T05:42:28.838Z,27.77
2017-11-30T05:44:57.286Z,25.88
2017-11-30T05:47:25.632Z,27.40
2017-11-30T05:49:54.000Z,26.25
2017-11-30T05:52:22.349Z,30.33
2017-11-30T05:54:50.737Z,32.75
2017-11-30T05:57:19.081Z,27.15
2017-11-30T05:59:47.441Z,26.98
2017-11-30T06:02:15.795Z,24.25
2017-11-30T06:04:44.132Z,25.05
2017-11-30T06:07:12.512Z,23.67
2017-11-30T06:09:40.867Z,32.03
2017-11-30T06:12:09.212Z,26.60
2017-11-30T06:14:37.593Z,23.73
2017-11-30T06:17:05.956Z,22.45
2017-11-30T06:19:34.325Z,23.30
2017-11-30T06:22:02.693Z,29.17
2017-11-30T06:24:31.031Z,32.42
2017-11-30T06:26:59.422Z,27.77
2017-11-30T06:29:27.768Z,26.25
2017-11-30T06:31:56.112Z,28.77
2017-11-30T06:34:24.489Z,28.12
2017-11-30T06:36:56.272Z,23.98
2017-11-30T06:39:24.652Z,27.17
2017-11-30T06:41:53.042Z,33.00
2017-11-30T06:44:21.715Z,43.83
2017-11-30T06:46:50.127Z,34.63
2017-11-30T06:49:18.506Z,35.83
2017-11-30T06:51:46.864Z,36.08
2017-11-30T06:54:22.180Z,35.53
2017-11-30T06:56:50.556Z,38.15
2017-11-30T06:59:18.905Z,39.63
2017-11-30T07:01:47.267Z,33.70
2017-11-30T07:04:15.629Z,38.40
2017-11-30T07:06:44.004Z,38.25
2017-11-30T07:09:12.349Z,36.97
2017-11-30T07:11:40.702Z,33.63
2017-11-30T07:14:09.041Z,34.03
2017-11-30T07:16:37.391Z,34.05
2017-11-30T07:19:05.825Z,33.45
2017-11-30T07:21:34.180Z,32.67
2017-11-30T07:24:02.558Z,32.08
2017-11-30T07:26:30.901Z,39.28
2017-11-30T07:28:59.264Z,40.50
2017-11-30T07:31:27.650Z,31.80
2017-11-30T07:33:55.994Z,36.92
2017-11-30T07:36:24.340Z,33.03
2017-11-30T07:38:52.690Z,30.65
2017-11-30T07:41:21.074Z,30.42
2017-11-30T07:43:49.456Z,32.08
2017-11-30T07:46:17.808Z,37.90
2017-11-30T07:48:46.167Z,30.10
2017-11-30T07:51:14.515Z,31.45
2017-11-30T07:53:42.888Z,24.33
2017-11-30T07:56:11.422Z,29.35
2017-11-30T07:58:39.764Z,29.65
2017-11-30T08:01:08.120Z,31.27
2017-11-30T08:03:36.470Z,29.25
2017-11-30T08:06:04.816Z,26.75
2017-11-30T08:08:33.206Z,26.77
2017-11-30T08:11:01.553Z,26.02
2017-11-30T08:13:29.900Z,16.35
2017-11-30T08:15:58.266Z,16.17
2017-11-30T08:18:26.600Z,23.87
2017-11-30T08:20:54.976Z,14.63
2017-11-30T08:23:23.317Z,13.73
2017-11-30T08:25:51.664Z,16.92
2017-11-30T08:28:20.009Z,18.67
2017-11-30T08:30:48.373Z,19.23
2017-11-30T08:33:16.745Z,19.27
2017-11-30T08:35:45.089Z,27.27
2017-11-30T08:38:13.479Z,21.83
2017-11-30T08:40:41.862Z,22.62
2017-11-30T08:43:10.208Z,27.92
2017-11-30T08:45:38.595Z,23.48
2017-11-30T08:48:06.948Z,22.20
2017-11-30T08:50:35.303Z,19.35
2017-11-30T08:53:03.658Z,18.95
2017-11-30T08:55:32.006Z,22.60
2017-11-30T08:58:00.397Z,26.52
2017-11-30T09:00:28.743Z,24.90
2017-11-30T09:02:57.104Z,31.67
2017-11-30T09:05:25.459Z,19.35
2017-11-30T09:07:53.846Z,21.83
2017-11-30T09:10:22.240Z,20.95
2017-11-30T09:12:50.617Z,20.98
2017-11-30T09:15:18.960Z,18.00
2017-11-30T09:17:47.301Z,17.02
2017-11-30T09:20:15.650Z,17.70
2017-11-30T09:22:44.038Z,20.27
2017-11-30T09:25:12.388Z,19.25
2017-11-30T09:27:40.726Z,17.87
2017-11-30T09:30:09.095Z,17.73
2017-11-30T09:32:37.433Z,20.37
2017-11-30T09:35:05.822Z,18.80
2017-11-30T09:37:34.168Z,25.35
2017-11-30T09:40:02.517Z,13.80
2017-11-30T09:42:30.865Z,14.98
2017-11-30T09:44:59.216Z,15.75
2017-11-30T09:47:27.594Z,14.57
2017-11-30T09:49:55.935Z,17.17
2017-11-30T09:52:24.272Z,12.77
2017-11-30T09:54:52.618Z,13.65
2017-11-30T09:57:21.012Z,14.93
2017-11-30T09:59:49.364Z,15.00
2017-11-30T10:02:17.727Z,15.90
2017-11-30T10:04:46.200Z,12.25
2017-11-30T10:07:14.637Z,13.70
2017-11-30T10:09:42.995Z,13.48
2017-11-30T10:12:11.993Z,16.05
2017-11-30T10:14:40.744Z,13.80
2017-11-30T10:17:09.360Z,12.37
2017-11-30T10:19:38.060Z,13.82
2017-11-30T10:22:06.708Z,15.98
2017-11-30T10:24:35.429Z,18.12
2017-11-30T10:27:04.160Z,14.43
2017-11-30T10:29:32.813Z,16.02
2017-11-30T10:32:01.676Z,13.32
2017-11-30T10:34:30.131Z,14.80
2017-11-30T10:36:58.721Z,11.98
2017-11-30T10:39:27.258Z,12.37
2017-11-30T10:41:56.100Z,10.63
2017-11-30T10:44:24.818Z,8.05
2017-11-30T10:46:53.545Z,8.32
2017-11-30T10:49:22.989Z,8.10
2017-11-30T10:51:51.645Z,10.10
2017-11-30T10:54:20.394Z,11.20
2017-11-30T10:56:49.184Z,8.68
2017-11-30T10:59:17.936Z,10.00
2017-11-30T11:01:46.797Z,9.85
2017-11-30T11:04:15.647Z,12.25
2017-11-30T11:06:44.321Z,12.82
2017-11-30T11:09:12.955Z,10.40
2017-11-30T11:11:41.413Z,11.27
2017-11-30T11:14:09.821Z,12.37
2017-11-30T11:16:38.187Z,13.57
2017-11-30T11:19:06.781Z,13.60
2017-11-30T11:21:35.548Z,16.30
2017-11-30T11:24:04.401Z,16.20
2017-11-30T11:26:32.990Z,15.75
2017-11-30T11:29:01.675Z,14.48
2017-11-30T11:31:30.337Z,15.45
2017-11-30T11:33:59.144Z,18.87
2017-11-30T11:36:28.234Z,17.30
2017-11-30T11:38:57.882Z,19.65
2017-11-30T11:41:26.510Z,23.20
2017-11-30T11:43:55.255Z,21.52
2017-11-30T11:46:23.922Z,21.62
2017-11-30T11:48:52.353Z,23.45
2017-11-30T11:51:20.705Z,17.55
2017-11-30T11:53:49.381Z,20.58
2017-11-30T11:56:19.094Z,23.58
2017-11-30T11:58:47.775Z,21.27
2017-11-30T12:01:16.589Z,17.45
2017-11-30T12:03:45.249Z,20.17
2017-11-30T12:06:14.158Z,16.65
2017-11-30T12:08:42.914Z,21.50
2017-11-30T12:11:11.605Z,18.45
2017-11-30T12:13:40.485Z,16.60
2017-11-30T12:16:09.213Z,17.20
2017-11-30T12:18:37.965Z,16.40
2017-11-30T12:21:06.837Z,15.57
2017-11-30T12:23:35.730Z,20.60
2017-11-30T12:26:04.505Z,18.20
2017-11-30T12:28:33.099Z,18.52
2017-11-30T12:31:01.660Z,20.55
2017-11-30T12:33:30.458Z,17.90
2017-11-30T12:35:59.088Z,17.95
2017-11-30T12:38:27.986Z,17.45
2017-11-30T12:40:56.622Z,22.33
2017-11-30T12:43:25.197Z,19.33
2017-11-30T12:45:53.788Z,21.50
2017-11-30T12:48:22.141Z,25.25
2017-11-30T12:50:50.519Z,16.05
2017-11-30T12:53:18.882Z,25.08
2017-11-30T12:55:47.249Z,21.48
2017-11-30T12:58:15.604Z,22.55
2017-11-30T13:00:44.010Z,16.92
2017-11-30T13:03:12.528Z,21.60
2017-11-30T13:05:40.974Z,20.17
2017-11-30T13:08:09.359Z,22.85
2017-11-30T13:10:37.702Z,20.08
2017-11-30T13:13:06.065Z,20.17
2017-11-30T13:15:34.622Z,21.98
2017-11-30T13:18:03.083Z,16.77
2017-11-30T13:20:31.454Z,19.95
2017-11-30T13:22:59.847Z,20.83
2017-11-30T13:25:28.199Z,22.13
2017-11-30T13:27:56.572Z,18.12
2017-11-30T13:30:24.924Z,17.20
2017-11-30T13:32:53.271Z,20.62
2017-11-30T13:35:21.751Z,18.42
2017-11-30T13:37:50.100Z,18.52
2017-11-30T13:40:18.469Z,15.90
2017-11-30T13:42:46.992Z,14.85
2017-11-30T13:45:15.599Z,15.48
2017-11-30T13:47:43.971Z,14.95
2017-11-30T13:50:12.320Z,18.20
2017-11-30T13:52:43.574Z,15.27
2017-11-30T13:55:11.962Z,12.57
2017-11-30T13:57:40.547Z,14.65
2017-11-30T14:00:09.028Z,8.40
2017-11-30T14:02:37.371Z,12.23
2017-11-30T14:05:05.726Z,13.60
2017-11-30T14:07:34.075Z,9.13
2017-11-30T14:10:02.440Z,15.02
2017-11-30T14:12:30.815Z,10.20
2017-11-30T14:14:59.170Z,10.43
2017-11-30T14:17:27.512Z,9.68
2017-11-30T14:19:55.858Z,11.80
2017-11-30T14:22:24.209Z,9.73
2017-11-30T14:24:52.574Z,9.60
2017-11-30T14:27:20.928Z,10.07
2017-11-30T14:29:49.893Z,9.68
2017-11-30T14:32:18.559Z,8.50
2017-11-30T14:34:48.180Z,10.02
2017-11-30T14:37:17.925Z,10.90
2017-11-30T14:39:47.124Z,13.13
2017-11-30T14:42:17.518Z,11.35
2017-11-30T14:44:46.510Z,8.27
2017-11-30T14:47:15.312Z,10.02
2017-11-30T14:49:45.855Z,14.48
2017-11-30T14:52:14.620Z,11.63
2017-11-30T14:54:43.454Z,11.88
2017-11-30T14:57:14.046Z,12.23
2017-11-30T14:59:43.625Z,13.73
2017-11-30T15:02:12.087Z,10.18
2017-11-30T15:04:40.494Z,14.05
2017-11-30T15:07:08.921Z,13.60
2017-11-30T15:09:37.266Z,14.25
2017-11-30T15:12:05.603Z,12.52
2017-11-30T15:14:33.974Z,14.52
2017-11-30T15:17:02.314Z,11.70
2017-11-30T15:19:31.635Z,12.93
2017-11-30T15:21:59.986Z,12.80
2017-11-30T15:24:28.327Z,12.13
2017-11-30T15:26:56.667Z,13.77
2017-11-30T15:29:25.002Z,13.50
2017-11-30T15:31:53.477Z,12.73
2017-11-30T15:34:21.830Z,11.98
2017-11-30T15:36:50.175Z,14.70
2017-11-30T15:39:18.531Z,13.20
2017-11-30T15:41:46.896Z,13.82
2017-11-30T15:44:15.268Z,14.63
2017-11-30T15:46:43.609Z,11.93
2017-11-30T15:49:11.950Z,10.93
2017-11-30T15:51:40.294Z,12.93
2017-11-30T15:54:08.630Z,13.88
2017-11-30T15:56:37.020Z,15.25
2017-11-30T15:59:05.362Z,13.90
2017-11-30T16:01:33.707Z,19.92
2017-11-30T16:04:02.091Z,16.20
2017-11-30T16:06:33.664Z,14.60
2017-11-30T16:09:05.314Z,14.10
2017-11-30T16:11:35.291Z,17.73
2017-11-30T16:14:04.226Z,14.63
2017-11-30T16:16:32.585Z,9.98
2017-11-30T16:19:03.064Z,13.75
2017-11-30T16:21:31.411Z,12.93
2017-11-30T16:23:59.762Z,14.50
2017-11-30T16:26:29.166Z,12.88
2017-11-30T16:28:57.511Z,16.23
2017-11-30T16:31:26.315Z,11.75
2017-11-30T16:33:54.654Z,13.45
2017-11-30T16:36:24.640Z,9.93
2017-11-30T16:38:53.005Z,11.68
2017-11-30T16:41:21.395Z,10.02
2017-11-30T16:43:50.624Z,6.70
2017-11-30T16:46:20.556Z,6.90
2017-11-30T16:48:49.783Z,5.75
2017-11-30T16:51:18.180Z,7.93
2017-11-30T16:53:47.602Z,8.73
2017-11-30T16:56:23.135Z,10.88
2017-11-30T16:58:53.090Z,6.90
2017-11-30T17:01:23.012Z,9.63
2017-11-30T17:03:53.292Z,8.40
2017-11-30T17:06:23.628Z,8.40
2017-11-30T17:08:53.718Z,7.18
2017-11-30T17:11:25.711Z,6.30
2017-11-30T17:13:58.583Z,4.70
2017-11-30T17:16:28.361Z,7.53
2017-11-30T17:18:58.282Z,7.10
2017-11-30T17:21:28.448Z,6.97
2017-11-30T17:23:58.748Z,7.25
2017-11-30T17:26:29.076Z,6.65
2017-11-30T17:29:00.392Z,8.98
2017-11-30T17:31:31.670Z,9.20
2017-11-30T17:34:00.286Z,8.82
2017-11-30T17:36:28.750Z,7.80
2017-11-30T17:38:57.095Z,8.40
2017-11-30T17:41:25.713Z,13.90
2017-11-30T17:43:54.397Z,10.48
2017-11-30T17:46:24.307Z,13.48
2017-11-30T17:48:54.980Z,12.88
2017-11-30T17:51:25.168Z,10.32
2017-11-30T17:53:55.277Z,15.20
2017-11-30T17:56:24.054Z,11.07
2017-11-30T17:58:55.757Z,12.93
2017-11-30T18:01:24.793Z,15.60
2017-11-30T18:03:53.509Z,13.70
2017-11-30T18:06:24.725Z,20.88
2017-11-30T18:08:54.284Z,38.53
2017-11-30T18:11:23.082Z,75.05
2017-11-30T18:13:52.705Z,32.88
2017-11-30T18:16:23.169Z,110.30
2017-11-30T18:18:56.154Z,33.50
2017-11-30T18:21:27.245Z,25.15
2017-11-30T18:23:57.992Z,19.90
2017-11-30T18:26:28.216Z,21.48
2017-11-30T18:28:57.613Z,21.45
2017-11-30T18:31:28.233Z,20.40
2017-11-30T18:34:00.554Z,23.10
2017-11-30T18:36:32.538Z,18.40
2017-11-30T18:39:02.832Z,18.10
2017-11-30T18:41:34.143Z,22.08
2017-11-30T18:44:04.620Z,19.75
2017-11-30T18:46:36.061Z,18.87
2017-11-30T18:49:06.565Z,18.27
2017-11-30T18:51:37.684Z,19.35
2017-11-30T18:54:07.377Z,20.02
2017-11-30T18:56:38.547Z,19.67
2017-11-30T18:59:08.110Z,20.70
2017-11-30T19:01:36.865Z,22.30
2017-11-30T19:04:11.493Z,18.65
2017-11-30T19:06:40.776Z,19.00
2017-11-30T19:09:09.416Z,19.55
2017-11-30T19:11:37.821Z,15.60
2017-11-30T19:14:06.179Z,17.80
2017-11-30T19:16:34.663Z,16.30
2017-11-30T19:19:03.010Z,19.98
2017-11-30T19:21:31.371Z,24.40
2017-11-30T19:24:00.020Z,20.08
2017-11-30T19:26:28.695Z,20.10
2017-11-30T19:28:58.355Z,63.03
2017-11-30T19:31:28.480Z,24.98
2017-11-30T19:33:57.356Z,17.00
2017-11-30T19:36:27.472Z,24.00
2017-11-30T19:38:57.427Z,41.65
2017-11-30T19:41:31.619Z,26.62
2017-11-30T19:44:01.390Z,20.83
2017-11-30T19:46:38.498Z,20.25
2017-11-30T19:51:45.612Z,19.85
2017-11-30T19:54:17.948Z,21.98
2017-11-30T19:56:57.280Z,21.60
2017-11-30T19:59:30.976Z,28.27
2017-11-30T20:02:11.416Z,20.40
2017-11-30T20:04:49.712Z,21.85
2017-11-30T20:07:21.080Z,22.45
2017-11-30T20:10:00.254Z,25.48
2017-11-30T20:12:30.615Z,21.87
2017-11-30T20:17:39.630Z,24.73
2017-11-30T20:20:19.016Z,23.17
2017-11-30T20:25:25.921Z,22.75
2017-11-30T20:28:11.615Z,23.00
2017-11-30T20:30:42.913Z,23.58
2017-11-30T20:33:19.847Z,24.50
2017-11-30T20:35:56.076Z,19.98
2017-11-30T20:38:27.410Z,21.77
2017-11-30T20:43:39.756Z,18.30
2017-11-30T20:46:12.551Z,21.77
2017-11-30T20:48:45.313Z,17.20
2017-11-30T20:51:13.951Z,19.40
2017-11-30T20:53:42.659Z,20.55
2017-11-30T20:56:11.175Z,20.33
2017-11-30T20:58:39.524Z,17.58
2017-11-30T21:01:07.980Z,20.05
2017-11-30T21:03:38.657Z,22.02
2017-11-30T21:06:07.154Z,15.63
2017-11-30T21:08:57.139Z,16.85
2017-11-30T21:11:29.416Z,17.90
2017-11-30T21:13:59.316Z,20.58
2017-11-30T21:16:28.911Z,19.77
2017-11-30T21:19:01.882Z,19.80
2017-11-30T21:21:35.915Z,19.67
2017-11-30T21:24:04.558Z,19.17
2017-11-30T21:26:38.832Z,20.52
2017-11-30T21:29:12.187Z,17.40
2017-11-30T21:31:46.384Z,19.55
2017-11-30T21:34:19.977Z,16.48
2017-11-30T21:39:33.713Z,13.52
2017-11-30T21:42:13.348Z,17.30
2017-11-30T21:44:48.647Z,14.50
2017-11-30T21:47:23.302Z,12.80
2017-11-30T21:49:58.268Z,13.10
2017-11-30T21:52:29.819Z,13.95
2017-11-30T21:55:09.058Z,16.52
2017-11-30T21:57:40.426Z,11.95
2017-11-30T22:00:14.323Z,11.15
2017-11-30T22:02:46.305Z,10.50
2017-11-30T22:05:19.357Z,13.05
2017-11-30T22:07:51.117Z,12.98
2017-11-30T22:10:20.628Z,12.32
2017-11-30T22:12:57.898Z,10.55
2017-11-30T22:15:28.036Z,11.12
2017-11-30T22:17:57.257Z,14.70
2017-11-30T22:20:25.622Z,11.02
2017-11-30T22:22:54.156Z,9.85
2017-11-30T22:25:22.621Z,16.60
2017-11-30T22:27:51.188Z,15.75
2017-11-30T22:30:19.531Z,14.80
2017-11-30T22:32:47.868Z,15.02
2017-11-30T22:35:16.243Z,12.50
2017-11-30T22:37:44.633Z,15.48
2017-11-30T22:40:13.218Z,11.65
2017-11-30T22:42:41.571Z,12.63
2017-11-30T22:45:09.926Z,12.70
2017-11-30T22:47:38.802Z,14.40
2017-11-30T22:50:07.213Z,17.00
2017-11-30T22:52:35.686Z,19.05
2017-11-30T22:55:04.207Z,14.82
2017-11-30T22:57:32.878Z,15.07
2017-11-30T23:00:01.224Z,15.65
2017-11-30T23:02:29.566Z,21.50
2017-11-30T23:04:58.043Z,15.05
2017-11-30T23:07:26.393Z,16.15
2017-11-30T23:09:54.766Z,17.42
2017-11-30T23:12:23.102Z,20.05
2017-11-30T23:14:51.464Z,15.82
2017-11-30T23:17:19.822Z,22.65
2017-11-30T23:19:48.162Z,20.90
2017-11-30T23:22:16.537Z,20.15
2017-11-30T23:24:44.884Z,18.62
2017-11-30T23:27:13.230Z,17.50
2017-11-30T23:29:41.572Z,22.42
2017-11-30T23:32:09.916Z,18.23
2017-11-30T23:34:38.292Z,16.30
2017-11-30T23:37:06.631Z,18.42
2017-11-30T23:39:34.985Z,17.48
2017-11-30T23:42:03.319Z,19.67
2017-11-30T23:44:31.658Z,16.08
2017-11-30T23:47:00.032Z,18.65
2017-11-30T23:49:28.378Z,18.85
2017-11-30T23:51:56.759Z,19.42
2017-11-30T23:54:25.112Z,16.58
2017-11-30T23:56:53.447Z,19.45
2017-11-30T23:59:21.916Z,19.12
